CYNC

Wemindji Airport

Wemindji, Quebec, Canada
METAR CYNC 251700Z 25006KT 190V270 15SM FEW015 FEW300 M03/M08 A3011 RMK SC1CI1 SC TR SLP201
Observed Flight Rules
Apr-25 @ 17:00 UTC (49 minutes ago) Visual Flight Rules
Wind Visibility Clouds
250° at 6 knots 15 miles
  • Few at 1,500' AGL
  • Few at 30,000' AGL
Temperatures Readings
Current -3°C / 27°F
Dewpoint -8°C / 18°F
Humidity 69%
Altimeter 30.11" Hg
Pressure 1020.1 hPa
Elevation 14
METAR CYNC 251700Z 25006KT 190V270 15SM FEW015 FEW300 M03/M08 A3011 RMK SC1CI1 SC TR SLP201
Observed Flight Rules
Apr-25 @ 17:00 UTC
(49 minutes ago)
VFR
Wind Visibility
250° at 6 knots 15 miles
Clouds
  • Few at 1,500' AGL
  • Few at 30,000' AGL
Temperature Dewpoint
-3°C / 27°F -8°C / 18°F
Humidity Altimeter Pressure
69% 30.11" Hg 1020.1 hPa